Time;durP1;ratioP1;P1;durP2;ratioP2;P2;SDS_P1;SDS_P2;PMS_P1;PMS_P2;Temp;Humidity;BMP_temperature;BMP_pressure;BME280_temperature;BME280_humidity;BME280_pressure;Samples;Min_cycle;Max_cycle;Signal;HPM_P1;HPM_P2
2023/03/31 00:02:20;;;;;;;1999.90;999.90;;;12.50;99.90;;;;;;5053152;28;20059;-77
2023/03/31 00:04:51;;;;;;;1999.90;999.90;;;12.60;99.90;;;;;;5053032;28;20013;-72
2023/03/31 00:07:20;;;;;;;1999.90;999.90;;;12.60;99.90;;;;;;5052768;28;20555;-75
2023/03/31 00:09:46;;;;;;;1999.90;999.90;;;12.60;99.90;;;;;;5053011;28;20037;-74
2023/03/31 00:12:14;;;;;;;1999.90;999.90;;;12.70;99.90;;;;;;5053069;28;20021;-71
2023/03/31 00:14:41;;;;;;;1999.90;999.90;;;12.70;99.90;;;;;;5052553;28;20411;-72
2023/03/31 00:17:07;;;;;;;1999.90;999.90;;;12.70;99.90;;;;;;5052671;28;20013;-75
2023/03/31 00:19:33;;;;;;;1999.90;999.90;;;12.70;99.90;;;;;;5045281;28;20033;-75
2023/03/31 00:22:01;;;;;;;1999.90;999.90;;;12.70;99.90;;;;;;5052448;28;20024;-73
2023/03/31 00:24:31;;;;;;;1999.90;999.90;;;12.70;99.90;;;;;;5052818;28;20025;-71
2023/03/31 00:26:58;;;;;;;1999.90;999.90;;;12.80;99.90;;;;;;5049814;28;20020;-73
2023/03/31 00:29:25;;;;;;;1999.90;999.90;;;12.80;99.90;;;;;;5050319;28;20028;-75
2023/03/31 00:31:50;;;;;;;1999.90;999.90;;;12.80;99.90;;;;;;5052613;28;20027;-75
2023/03/31 00:34:16;;;;;;;1999.90;999.90;;;12.70;99.90;;;;;;5051740;28;20029;-72
2023/03/31 00:36:47;;;;;;;1999.90;999.90;;;12.70;99.90;;;;;;5052637;28;20017;-74
2023/03/31 00:39:17;;;;;;;1999.90;999.90;;;12.80;99.90;;;;;;5052607;28;20036;-76
2023/03/31 00:41:44;;;;;;;1999.90;999.90;;;12.90;99.90;;;;;;5051928;28;20036;-76
2023/03/31 00:44:12;;;;;;;1999.90;999.90;;;12.90;99.90;;;;;;5052703;28;20025;-76
2023/03/31 00:47:01;;;;;;;1999.90;999.90;;;12.90;99.90;;;;;;5052307;28;20484;-76
2023/03/31 00:49:49;;;;;;;1999.90;999.90;;;12.90;99.90;;;;;;5051129;28;20072;-73
2023/03/31 00:52:18;;;;;;;1999.90;999.90;;;12.90;99.90;;;;;;5052266;28;20108;-73
2023/03/31 00:54:47;;;;;;;1999.90;999.90;;;12.90;99.90;;;;;;5052442;28;20535;-76
2023/03/31 00:57:14;;;;;;;1999.90;999.90;;;12.90;99.90;;;;;;5052464;28;20041;-72
2023/03/31 00:59:46;;;;;;;1999.90;999.90;;;12.80;99.90;;;;;;5052680;28;20017;-74
2023/03/31 01:02:14;;;;;;;1999.90;999.90;;;12.80;99.90;;;;;;5052174;28;20017;-73
2023/03/31 01:04:49;;;;;;;1999.90;999.90;;;12.80;99.90;;;;;;5052443;28;20540;-76
2023/03/31 01:07:34;;;;;;;1999.90;999.90;;;12.80;99.90;;;;;;5050975;28;20029;-76
2023/03/31 01:10:02;;;;;;;1999.90;999.90;;;12.80;99.90;;;;;;5052249;28;20052;-79
2023/03/31 01:12:30;;;;;;;1999.90;999.90;;;12.80;99.90;;;;;;5052032;28;20025;-76
2023/03/31 01:14:56;;;;;;;1999.90;999.90;;;12.80;99.90;;;;;;5051694;28;20029;-73
2023/03/31 01:17:23;;;;;;;1999.90;999.90;;;12.80;99.90;;;;;;5051333;28;20399;-71
2023/03/31 01:19:52;;;;;;;1999.90;999.90;;;12.80;99.90;;;;;;5052333;28;20100;-76
2023/03/31 01:22:51;;;;;;;1999.90;999.90;;;12.80;99.90;;;;;;5051609;28;20025;-74
2023/03/31 01:25:49;;;;;;;1999.90;999.90;;;12.80;99.90;;;;;;5052264;28;20017;-76
2023/03/31 01:28:29;;;;;;;1999.90;999.90;;;12.90;99.90;;;;;;5050623;28;20029;-71
2023/03/31 01:31:20;;;;;;;1999.90;999.90;;;13.00;99.90;;;;;;5052182;28;20442;-76
2023/03/31 01:34:23;;;;;;;1999.90;999.90;;;13.00;99.90;;;;;;5052017;28;20475;-76
2023/03/31 01:37:06;;;;;;;1999.90;999.90;;;13.00;99.90;;;;;;5051940;28;20029;-75
2023/03/31 01:39:59;;;;;;;1999.90;999.90;;;13.10;99.90;;;;;;5052288;28;20100;-72
2023/03/31 01:42:35;;;;;;;1999.90;999.90;;;13.10;99.90;;;;;;5051456;28;20017;-74
2023/03/31 01:45:38;;;;;;;1999.90;999.90;;;13.20;99.90;;;;;;5052404;28;20104;-71
2023/03/31 01:48:11;;;;;;;;;;;13.20;99.90;;;;;;5030724;28;20042;-76
2023/03/31 01:50:51;;;;;;;1999.90;999.90;;;13.20;99.90;;;;;;5034966;28;20399;-75
2023/03/31 01:53:37;;;;;;;1999.90;999.90;;;13.20;99.90;;;;;;5035200;28;20044;-71
2023/03/31 01:56:15;;;;;;;1999.90;999.90;;;13.30;99.90;;;;;;5035602;28;20072;-73
2023/03/31 01:59:00;;;;;;;1999.90;999.90;;;13.30;99.90;;;;;;5035378;28;20116;-75
2023/03/31 02:01:55;;;;;;;1999.90;999.90;;;13.30;99.90;;;;;;5035466;28;20033;-72
2023/03/31 02:04:25;;;;;;;1999.90;999.90;;;13.30;99.90;;;;;;5035177;28;20109;-75
2023/03/31 02:06:56;;;;;;;1999.90;999.90;;;13.30;99.90;;;;;;5037475;28;20074;-74
2023/03/31 02:09:27;;;;;;;1999.90;999.90;;;13.20;99.90;;;;;;5055138;28;20021;-72
2023/03/31 02:11:56;;;;;;;1999.90;999.90;;;13.10;99.90;;;;;;5055256;28;20017;-72
2023/03/31 02:14:26;;;;;;;1999.90;999.90;;;13.10;99.90;;;;;;5054066;28;20028;-75
2023/03/31 02:16:57;;;;;;;1999.90;999.90;;;13.10;99.90;;;;;;5054716;28;20078;-71
2023/03/31 02:19:30;;;;;;;1999.90;999.90;;;13.10;99.90;;;;;;5053355;28;20031;-72
2023/03/31 02:21:56;;;;;;;1999.90;999.90;;;13.10;99.90;;;;;;5054766;28;20017;-72
2023/03/31 02:24:25;;;;;;;1999.90;999.90;;;13.10;99.90;;;;;;5054729;28;20021;-76
2023/03/31 02:26:57;;;;;;;1999.90;999.90;;;13.10;99.90;;;;;;5054361;28;20082;-72
2023/03/31 02:29:22;;;;;;;1999.90;999.90;;;13.10;99.90;;;;;;5054982;28;20025;-75
2023/03/31 02:32:04;;;;;;;1999.90;999.90;;;13.00;99.90;;;;;;5054786;28;20100;-73
2023/03/31 02:34:30;;;;;;;1999.90;999.90;;;13.00;99.90;;;;;;5054493;28;20025;-71
2023/03/31 02:36:55;;;;;;;1999.90;999.90;;;13.00;99.90;;;;;;5054332;28;20096;-75
2023/03/31 02:39:26;;;;;;;1999.90;999.90;;;13.00;99.90;;;;;;5054499;28;20167;-75
2023/03/31 02:41:53;;;;;;;1999.90;999.90;;;13.00;99.90;;;;;;5054324;28;20044;-75
2023/03/31 02:44:20;;;;;;;1999.90;999.90;;;13.00;99.90;;;;;;5054164;28;20021;-73
2023/03/31 02:46:46;;;;;;;1999.90;999.90;;;13.00;99.90;;;;;;5054407;28;20035;-73
2023/03/31 02:49:13;;;;;;;1999.90;999.90;;;13.00;99.90;;;;;;5052968;28;20057;-75
2023/03/31 02:51:54;;;;;;;1999.90;999.90;;;13.00;99.90;;;;;;5054382;28;20108;-75
2023/03/31 02:54:29;;;;;;;1999.90;999.90;;;13.00;99.90;;;;;;5053787;28;20112;-73
2023/03/31 02:57:28;;;;;;;1999.90;999.90;;;13.10;99.90;;;;;;5052996;28;20488;-73
2023/03/31 03:00:29;;;;;;;1999.90;999.90;;;13.10;99.90;;;;;;5054453;28;20047;-75
2023/03/31 03:03:20;;;;;;;1999.90;999.90;;;13.00;99.90;;;;;;5054155;28;20079;-75
2023/03/31 03:06:01;;;;;;;1999.90;999.90;;;13.00;99.90;;;;;;5053581;28;20468;-75
2023/03/31 03:08:49;;;;;;;1999.90;999.90;;;13.00;99.90;;;;;;5053790;28;20021;-75
2023/03/31 03:11:35;;;;;;;1999.90;999.90;;;13.00;99.90;;;;;;5054423;28;20032;-71
2023/03/31 03:14:04;;;;;;;1999.90;999.90;;;13.00;99.90;;;;;;5053254;28;20060;-71
2023/03/31 03:16:40;;;;;;;1999.90;999.90;;;13.10;99.90;;;;;;5053373;28;20066;-75
2023/03/31 03:19:06;;;;;;;1999.90;999.90;;;13.00;99.90;;;;;;5052598;28;20407;-75
2023/03/31 03:21:33;;;;;;;1999.90;999.90;;;13.10;99.90;;;;;;5049534;28;20361;-75
2023/03/31 03:24:00;;;;;;;1999.90;999.90;;;13.10;99.90;;;;;;5053787;28;20032;-72
2023/03/31 03:26:29;;;;;;;1999.90;999.90;;;13.10;99.90;;;;;;5053020;28;20025;-74
2023/03/31 03:28:56;;;;;;;1999.90;999.90;;;13.10;99.90;;;;;;5053572;28;20025;-75
2023/03/31 03:31:22;;;;;;;1999.90;999.90;;;13.10;99.90;;;;;;5053694;28;20029;-75
2023/03/31 03:33:51;;;;;;;1999.90;999.90;;;13.10;99.90;;;;;;5053719;28;20029;-75
2023/03/31 03:36:18;;;;;;;1999.90;999.90;;;13.10;99.90;;;;;;5052972;28;20548;-72
2023/03/31 03:38:44;;;;;;;1999.90;999.90;;;13.20;99.90;;;;;;5053417;28;20029;-76
2023/03/31 03:41:10;;;;;;;1999.90;999.90;;;13.10;99.90;;;;;;5053276;28;20025;-75
2023/03/31 03:43:35;;;;;;;1999.90;999.90;;;13.10;99.90;;;;;;5053428;28;20025;-76
2023/03/31 03:46:01;;;;;;;1999.90;999.90;;;13.20;99.90;;;;;;5052689;28;20095;-75
2023/03/31 03:48:27;;;;;;;1999.90;999.90;;;13.10;99.90;;;;;;5053048;28;20053;-71
2023/03/31 03:50:53;;;;;;;1999.90;999.90;;;13.10;99.90;;;;;;5053245;28;20103;-71
2023/03/31 03:53:19;;;;;;;1999.90;999.90;;;13.10;99.90;;;;;;5053593;28;20415;-74
2023/03/31 03:55:47;;;;;;;1999.90;999.90;;;13.10;99.90;;;;;;5053213;28;20100;-71
2023/03/31 03:58:13;;;;;;;1999.90;999.90;;;13.10;99.90;;;;;;5052343;28;20028;-71
2023/03/31 04:00:39;;;;;;;1999.90;999.90;;;13.10;99.90;;;;;;5053207;28;20021;-75
2023/03/31 04:03:04;;;;;;;1999.90;999.90;;;13.00;99.90;;;;;;5053316;28;20029;-70
2023/03/31 04:05:30;;;;;;;1999.90;999.90;;;13.00;99.90;;;;;;5053099;28;20462;-73
2023/03/31 04:07:56;;;;;;;1999.90;999.90;;;13.00;99.90;;;;;;5050852;28;20036;-75
2023/03/31 04:10:21;;;;;;;1999.90;999.90;;;13.00;99.90;;;;;;5052849;28;20118;-76
2023/03/31 04:12:47;;;;;;;1999.90;999.90;;;13.00;99.90;;;;;;5053021;28;20031;-75
2023/03/31 04:15:12;;;;;;;1999.90;999.90;;;13.00;99.90;;;;;;5052436;28;20029;-71
2023/03/31 04:17:38;;;;;;;1999.90;999.90;;;12.90;99.90;;;;;;5051608;28;20112;-70
2023/03/31 04:20:10;;;;;;;1999.90;999.90;;;12.90;99.90;;;;;;5048622;28;20025;-75
2023/03/31 04:22:45;;;;;;;1999.90;999.90;;;12.90;99.90;;;;;;5052410;28;20059;-75
2023/03/31 04:25:16;;;;;;;1999.90;999.90;;;13.00;99.90;;;;;;5052631;28;20017;-75
2023/03/31 04:27:49;;;;;;;1999.90;999.90;;;12.90;99.90;;;;;;5051937;28;20036;-75
2023/03/31 04:30:24;;;;;;;;;;;13.00;99.90;;;;;;5051939;28;20027;-74
2023/03/31 04:32:55;;;;;;;1999.90;999.90;;;13.00;99.90;;;;;;5052911;28;19928;-75
2023/03/31 04:35:22;;;;;;;1999.90;999.90;;;12.90;99.90;;;;;;5052646;28;20029;-72
2023/03/31 04:37:57;;;;;;;1999.90;999.90;;;12.90;99.90;;;;;;5051841;28;20108;-75
2023/03/31 04:40:24;;;;;;;1999.90;999.90;;;13.00;99.90;;;;;;5052667;28;20036;-75
2023/03/31 04:42:50;;;;;;;1999.90;999.90;;;13.00;99.90;;;;;;5052580;28;20031;-72
2023/03/31 04:45:16;;;;;;;1999.90;999.90;;;13.00;99.90;;;;;;5052605;28;20422;-73
2023/03/31 04:47:42;;;;;;;1999.90;999.90;;;13.10;99.90;;;;;;5051716;28;20033;-74
2023/03/31 04:50:09;;;;;;;1999.90;999.90;;;13.10;99.90;;;;;;5052434;28;20033;-75
2023/03/31 04:52:35;;;;;;;1999.90;999.90;;;13.10;99.90;;;;;;5052722;28;20021;-75
2023/03/31 04:55:01;;;;;;;1999.90;999.90;;;13.00;99.90;;;;;;5052524;28;20443;-77
2023/03/31 04:57:27;;;;;;;1999.90;999.90;;;13.10;99.90;;;;;;5052290;28;20028;-70
2023/03/31 04:59:52;;;;;;;1999.90;999.90;;;13.10;99.90;;;;;;5052185;28;20488;-75
2023/03/31 05:02:22;;;;;;;1999.90;999.90;;;13.10;99.90;;;;;;5052314;28;20381;-75
2023/03/31 05:04:49;;;;;;;1999.90;999.90;;;13.10;99.90;;;;;;5052685;28;20025;-76
2023/03/31 05:07:15;;;;;;;1999.90;999.90;;;13.10;99.90;;;;;;5052218;28;20045;-75
2023/03/31 05:09:41;;;;;;;1999.90;999.90;;;13.10;99.90;;;;;;5052011;28;20025;-70
2023/03/31 05:12:07;;;;;;;1999.90;999.90;;;13.00;99.90;;;;;;5052270;28;20438;-75
2023/03/31 05:14:32;;;;;;;1999.90;999.90;;;12.90;99.90;;;;;;5052087;28;20166;-71
2023/03/31 05:16:58;;;;;;;1999.90;999.90;;;12.70;99.90;;;;;;5051429;28;20032;-71
2023/03/31 05:19:24;;;;;;;1999.90;999.90;;;12.60;99.90;;;;;;5052007;28;20029;-75
2023/03/31 05:21:49;;;;;;;1999.90;999.90;;;12.60;99.90;;;;;;5054785;28;20063;-71
2023/03/31 05:24:15;;;;;;;1999.90;999.90;;;12.50;99.90;;;;;;5056286;28;20033;-75
2023/03/31 05:26:45;;;;;;;1999.90;999.90;;;12.50;99.90;;;;;;5055456;28;20029;-75
2023/03/31 05:29:11;;;;;;;1999.90;999.90;;;12.50;99.90;;;;;;5055610;28;20025;-76
2023/03/31 05:31:36;;;;;;;1999.90;999.90;;;12.50;99.90;;;;;;5055893;28;20526;-75
2023/03/31 05:34:02;;;;;;;1999.90;999.90;;;12.50;99.90;;;;;;5055427;28;20029;-72
2023/03/31 05:36:28;;;;;;;1999.90;999.90;;;12.50;99.90;;;;;;5050935;28;20024;-75
2023/03/31 05:38:53;;;;;;;1999.90;999.90;;;12.40;99.90;;;;;;5055351;28;20057;-76
2023/03/31 05:41:19;;;;;;;1999.90;999.90;;;12.40;99.90;;;;;;5055254;28;20029;-74
2023/03/31 05:43:45;;;;;;;1999.90;999.90;;;12.40;99.90;;;;;;5055202;28;20029;-76
2023/03/31 05:46:11;;;;;;;1999.90;999.90;;;12.40;99.90;;;;;;5052911;28;20027;-76
2023/03/31 05:48:37;;;;;;;1999.90;999.90;;;12.30;99.90;;;;;;5045628;28;20065;-70
2023/03/31 05:51:03;;;;;;;1999.90;999.90;;;12.30;99.90;;;;;;5042773;28;20457;-75
2023/03/31 05:53:29;;;;;;;1999.90;999.90;;;12.30;99.90;;;;;;5049479;28;20503;-75
2023/03/31 05:56:00;;;;;;;1999.90;999.90;;;12.30;99.90;;;;;;5044945;28;20101;-71
2023/03/31 05:58:27;;;;;;;1999.90;999.90;;;12.30;99.90;;;;;;5050124;28;20032;-71
2023/03/31 06:01:10;;;;;;;1999.90;999.90;;;12.30;99.90;;;;;;5054256;28;20436;-70
2023/03/31 06:03:36;;;;;;;;;;;12.30;99.90;;;;;;5049296;28;20048;-72
2023/03/31 06:06:04;;;;;;;1999.90;999.90;;;12.40;99.90;;;;;;5052883;28;19912;-75
2023/03/31 06:08:30;;;;;;;1999.90;999.90;;;12.40;99.90;;;;;;5051558;28;20031;-76
2023/03/31 06:10:56;;;;;;;1999.90;999.90;;;12.50;99.90;;;;;;5050829;28;20037;-74
2023/03/31 06:13:22;;;;;;;1999.90;999.90;;;12.50;99.90;;;;;;5052640;28;20566;-71
2023/03/31 06:15:58;;;;;;;1999.90;999.90;;;12.50;99.90;;;;;;5053714;28;20037;-76
2023/03/31 06:18:27;;;;;;;1999.90;999.90;;;12.50;99.90;;;;;;5054790;28;20124;-74
2023/03/31 06:20:53;;;;;;;1999.90;999.90;;;12.60;99.90;;;;;;5060791;28;20040;-75
2023/03/31 06:23:19;;;;;;;1999.90;999.90;;;12.70;99.90;;;;;;5048292;28;20029;-75
2023/03/31 06:25:44;;;;;;;1999.90;999.90;;;12.70;99.90;;;;;;5072180;28;20035;-73
2023/03/31 06:28:10;;;;;;;1999.90;999.90;;;12.80;99.90;;;;;;5054443;28;20048;-70
2023/03/31 06:30:35;;;;;;;1999.90;999.90;;;12.80;99.90;;;;;;5062984;28;20078;-75
2023/03/31 06:33:01;;;;;;;1999.90;999.90;;;12.90;99.90;;;;;;5063219;28;20079;-73
2023/03/31 06:35:27;;;;;;;1999.90;999.90;;;12.90;99.90;;;;;;5053215;28;20047;-74
2023/03/31 06:37:52;;;;;;;1999.90;999.90;;;12.90;99.90;;;;;;5053899;28;20090;-71
2023/03/31 06:40:18;;;;;;;1999.90;999.90;;;12.90;99.90;;;;;;5052450;28;20100;-74
2023/03/31 06:42:43;;;;;;;1999.90;999.90;;;13.00;99.90;;;;;;5052531;28;20593;-72
2023/03/31 06:45:09;;;;;;;1999.90;999.90;;;13.10;99.90;;;;;;5052463;28;20053;-70
2023/03/31 06:47:37;;;;;;;1999.90;999.90;;;13.10;99.90;;;;;;5052129;28;20059;-75
2023/03/31 06:50:04;;;;;;;1999.90;999.90;;;13.10;99.90;;;;;;5055417;28;20040;-71
2023/03/31 06:52:31;;;;;;;1999.90;999.90;;;13.20;99.90;;;;;;5052170;28;20131;-70
2023/03/31 06:54:56;;;;;;;1999.90;999.90;;;13.20;99.90;;;;;;5045874;28;20095;-71
2023/03/31 06:57:22;;;;;;;1999.90;999.90;;;13.20;99.90;;;;;;5052972;28;20115;-75
2023/03/31 06:59:48;;;;;;;1999.90;999.90;;;13.20;99.90;;;;;;5047406;28;20035;-71
2023/03/31 07:02:13;;;;;;;1999.90;999.90;;;13.20;99.90;;;;;;5046137;28;20048;-71
2023/03/31 07:04:39;;;;;;;1999.90;999.90;;;13.20;99.90;;;;;;5050484;28;20036;-70
2023/03/31 07:07:05;;;;;;;1999.90;999.90;;;13.20;99.90;;;;;;5052921;28;20798;-74
2023/03/31 07:09:30;;;;;;;1999.90;999.90;;;13.30;99.90;;;;;;5050480;28;20021;-74
2023/03/31 07:11:56;;;;;;;1999.90;999.90;;;13.30;99.90;;;;;;5050503;28;20025;-73
2023/03/31 07:14:22;;;;;;;1999.90;999.90;;;13.30;99.90;;;;;;5051064;28;20025;-74
2023/03/31 07:16:49;;;;;;;1999.90;999.90;;;13.30;99.90;;;;;;5044839;28;20032;-77
2023/03/31 07:19:15;;;;;;;1999.90;999.90;;;13.30;99.90;;;;;;5034687;28;20489;-73
2023/03/31 07:21:40;;;;;;;1999.90;999.90;;;13.30;99.90;;;;;;5047242;28;20029;-71
2023/03/31 07:24:06;;;;;;;1999.90;999.90;;;13.30;99.90;;;;;;5070180;28;20036;-75
2023/03/31 07:26:32;;;;;;;1999.90;999.90;;;13.30;99.90;;;;;;5068872;28;20033;-75
2023/03/31 07:28:58;;;;;;;1999.90;999.90;;;13.30;99.90;;;;;;5050672;28;20052;-75
2023/03/31 07:31:24;;;;;;;1999.90;999.90;;;13.50;99.90;;;;;;5053289;28;20499;-71
2023/03/31 07:33:49;;;;;;;1999.90;999.90;;;13.50;99.90;;;;;;5042382;28;20033;-70
2023/03/31 07:36:16;;;;;;;1999.90;999.90;;;13.50;99.90;;;;;;5054519;28;20525;-75
2023/03/31 07:38:44;;;;;;;1999.90;999.90;;;13.60;99.90;;;;;;5050525;28;20063;-70
2023/03/31 07:41:12;;;;;;;1999.90;999.90;;;13.50;99.90;;;;;;5050598;28;20026;-74
2023/03/31 07:43:38;;;;;;;1999.90;999.90;;;13.40;99.90;;;;;;5049653;28;20506;-75
2023/03/31 07:46:04;;;;;;;1999.90;999.90;;;13.50;99.90;;;;;;5047949;28;20025;-71
2023/03/31 07:48:30;;;;;;;1999.90;999.90;;;13.40;99.90;;;;;;5044186;28;20040;-74
2023/03/31 07:50:55;;;;;;;1999.90;999.90;;;13.50;99.90;;;;;;5046268;28;20036;-72
2023/03/31 07:53:21;;;;;;;1999.90;999.90;;;13.60;99.90;;;;;;5047665;28;20094;-73
2023/03/31 07:55:47;;;;;;;1999.90;999.90;;;13.60;99.90;;;;;;5058352;28;20086;-75
2023/03/31 07:58:13;;;;;;;1999.90;999.90;;;13.90;99.90;;;;;;5064479;28;20028;-72
2023/03/31 08:00:38;;;;;;;1999.90;999.90;;;13.60;99.90;;;;;;5051324;28;20648;-72
2023/03/31 08:03:04;;;;;;;1999.90;999.90;;;13.30;99.90;;;;;;5049469;28;20063;-75
2023/03/31 08:05:30;;;;;;;1999.90;999.90;;;13.30;99.90;;;;;;5055555;28;20524;-75
2023/03/31 08:07:56;;;;;;;1999.90;999.90;;;13.10;99.90;;;;;;5066179;28;20025;-75
2023/03/31 08:10:24;;;;;;;1999.90;999.90;;;13.30;99.90;;;;;;5048980;28;20502;-71
2023/03/31 08:12:50;;;;;;;1999.90;999.90;;;13.60;99.90;;;;;;5038171;28;20130;-71
2023/03/31 08:15:16;;;;;;;1999.90;999.90;;;13.50;99.90;;;;;;5041261;28;20026;-76
2023/03/31 08:17:42;;;;;;;1999.90;999.90;;;13.70;99.90;;;;;;5047691;28;20112;-71
2023/03/31 08:20:09;;;;;;;1999.90;999.90;;;14.40;99.90;;;;;;5053501;28;20051;-74
2023/03/31 08:22:36;;;;;;;1999.90;999.90;;;13.90;99.90;;;;;;5051443;28;20016;-76
2023/03/31 08:25:02;;;;;;;1999.90;999.90;;;13.60;99.90;;;;;;5051187;28;20033;-72
2023/03/31 08:27:31;;;;;;;1999.90;999.90;;;13.50;99.90;;;;;;5046068;28;20480;-74
2023/03/31 08:29:57;;;;;;;1999.90;999.90;;;13.40;99.90;;;;;;5044038;28;20415;-75
2023/03/31 08:32:23;;;;;;;1999.90;999.90;;;14.40;99.90;;;;;;5053903;28;20044;-74
2023/03/31 08:34:48;;;;;;;1999.90;999.90;;;14.60;99.90;;;;;;5051343;28;20484;-77
2023/03/31 08:37:14;;;;;;;1999.90;999.90;;;14.50;99.90;;;;;;5043634;28;20025;-75
2023/03/31 08:39:40;;;;;;;1999.90;999.90;;;14.60;99.90;;;;;;5032773;28;20021;-72
2023/03/31 08:42:38;;;;;;;1999.90;999.90;;;16.10;99.90;;;;;;5047640;28;20476;-75
2023/03/31 08:45:15;;;;;;;1999.90;999.90;;;16.40;99.90;;;;;;5032733;28;20576;-75
2023/03/31 08:47:43;;;;;;;1999.90;999.90;;;15.10;99.90;;;;;;5047607;28;20029;-76
2023/03/31 08:50:20;;;;;;;1999.90;999.90;;;14.50;99.90;;;;;;5048176;28;20163;-71
2023/03/31 08:53:02;;;;;;;1999.90;999.90;;;14.30;99.90;;;;;;5049385;28;20404;-76
2023/03/31 08:55:39;;;;;;;1999.90;999.90;;;14.20;99.90;;;;;;5051173;28;20021;-71
2023/03/31 08:58:36;;;;;;;1999.90;999.90;;;14.50;99.90;;;;;;5057077;28;20123;-78
2023/03/31 09:01:20;;;;;;;1999.90;999.90;;;14.20;99.90;;;;;;5034624;28;20026;-75
2023/03/31 09:04:08;;;;;;;1999.90;999.90;;;15.30;99.90;;;;;;5033804;28;20056;-73
2023/03/31 09:06:42;;;;;;;1999.90;999.90;;;15.90;99.90;;;;;;5051523;28;20021;-76
2023/03/31 09:09:20;;;;;;;1999.90;999.90;;;15.30;99.90;;;;;;5053055;28;20036;-75
2023/03/31 09:12:01;;;;;;;1999.90;999.90;;;14.40;99.90;;;;;;5052519;28;20014;-72
2023/03/31 09:14:35;;;;;;;1999.90;999.90;;;14.90;99.90;;;;;;5050756;28;20146;-76
2023/03/31 09:17:13;;;;;;;1999.90;999.90;;;14.30;99.90;;;;;;5053184;28;20524;-75
2023/03/31 09:19:47;;;;;;;1999.90;999.90;;;14.00;99.90;;;;;;5052257;28;20036;-70
2023/03/31 09:22:30;;;;;;;1999.90;999.90;;;13.50;99.90;;;;;;5052814;28;20449;-75
2023/03/31 09:25:04;;;;;;;1999.90;999.90;;;13.00;99.90;;;;;;5053507;28;20388;-75
2023/03/31 09:27:33;;;;;;;1999.90;999.90;;;12.80;99.90;;;;;;5052296;28;20384;-71
2023/03/31 09:30:11;;;;;;;1999.90;999.90;;;12.80;99.90;;;;;;5039999;28;20024;-71
2023/03/31 09:32:38;;;;;;;1999.90;999.90;;;13.90;99.90;;;;;;5068001;28;20037;-75
2023/03/31 09:35:22;;;;;;;1999.90;999.90;;;15.50;99.90;;;;;;5070878;28;20028;-75
2023/03/31 09:37:48;;;;;;;1999.90;999.90;;;16.00;99.90;;;;;;5071931;28;20033;-76
2023/03/31 09:40:17;;;;;;;1999.90;999.90;;;17.00;99.90;;;;;;5057484;28;20532;-73
2023/03/31 09:42:44;;;;;;;1999.90;999.90;;;17.30;99.90;;;;;;5049076;28;20021;-71
2023/03/31 09:45:15;;;;;;;1999.90;999.90;;;17.10;99.90;;;;;;5052178;28;20021;-77
2023/03/31 09:47:45;;;;;;;1999.90;999.90;;;16.60;99.90;;;;;;5056350;28;20098;-75
2023/03/31 09:50:11;;;;;;;1999.90;999.90;;;15.80;99.90;;;;;;5047293;28;20526;-71
2023/03/31 09:52:50;;;;;;;1999.90;999.90;;;15.60;99.90;;;;;;5047937;28;20021;-75
2023/03/31 09:55:31;;;;;;;1999.90;999.90;;;15.60;99.90;;;;;;5050765;28;20029;-75
2023/03/31 09:58:03;;;;;;;1999.90;999.90;;;15.00;99.90;;;;;;5050189;28;20025;-75
2023/03/31 10:00:28;;;;;;;1999.90;999.90;;;15.70;99.90;;;;;;5046052;28;20079;-76
2023/03/31 10:02:56;;;;;;;1999.90;999.90;;;14.60;99.90;;;;;;5048013;28;20455;-73
2023/03/31 10:05:35;;;;;;;1999.90;999.90;;;14.10;99.90;;;;;;5055218;28;20034;-74
2023/03/31 10:08:10;;;;;;;1999.90;999.90;;;15.00;99.90;;;;;;5056651;28;20144;-69
2023/03/31 10:10:36;;;;;;;1999.90;999.90;;;15.20;99.90;;;;;;5050945;28;20479;-73
2023/03/31 10:13:08;;;;;;;1999.90;999.90;;;15.30;99.90;;;;;;5050612;28;20021;-70
2023/03/31 10:15:37;;;;;;;1999.90;999.90;;;16.00;99.90;;;;;;5056765;28;20045;-75
2023/03/31 10:18:03;;;;;;;1999.90;999.90;;;15.20;99.90;;;;;;5053585;28;20037;-73
2023/03/31 10:20:42;;;;;;;1999.90;999.90;;;13.70;99.90;;;;;;5050697;28;20476;-70
2023/03/31 10:23:17;;;;;;;1999.90;999.90;;;14.10;99.90;;;;;;5045754;28;20114;-72
2023/03/31 10:25:46;;;;;;;1999.90;999.90;;;14.90;99.90;;;;;;5039415;28;20118;-75
2023/03/31 10:28:16;;;;;;;1999.90;999.90;;;15.40;99.90;;;;;;5046873;28;20155;-75
2023/03/31 10:30:56;;;;;;;1999.90;999.90;;;15.60;99.90;;;;;;5056308;28;20037;-75
2023/03/31 10:33:27;;;;;;;1999.90;999.90;;;15.80;99.90;;;;;;5042403;28;20396;-71
2023/03/31 10:35:58;;;;;;;1999.90;999.90;;;15.40;99.90;;;;;;5047315;28;20155;-71
2023/03/31 10:38:32;;;;;;;1999.90;999.90;;;15.30;99.90;;;;;;5057673;28;20032;-75
2023/03/31 10:40:59;;;;;;;1999.90;999.90;;;15.40;99.90;;;;;;5055718;28;20034;-72
2023/03/31 10:43:34;;;;;;;1999.90;999.90;;;15.10;99.90;;;;;;5050542;28;20036;-71
2023/03/31 10:46:00;;;;;;;1999.90;999.90;;;15.50;99.90;;;;;;5050827;28;20496;-73
2023/03/31 10:48:39;;;;;;;1999.90;999.90;;;15.50;99.90;;;;;;4960993;28;2210848;-72
2023/03/31 10:51:10;;;;;;;1999.90;999.90;;;15.30;99.90;;;;;;5040137;28;20079;-75
2023/03/31 10:53:51;;;;;;;1999.90;999.90;;;15.30;99.90;;;;;;5047430;28;20128;-75
2023/03/31 10:56:41;;;;;;;1999.90;999.90;;;15.40;99.90;;;;;;5052716;28;20029;-70
2023/03/31 10:59:20;;;;;;;1999.90;999.90;;;15.30;99.90;;;;;;5045624;28;20068;-69
2023/03/31 11:01:49;;;;;;;1999.90;999.90;;;15.30;99.90;;;;;;5048284;28;20527;-71
2023/03/31 11:04:43;;;;;;;1999.90;999.90;;;15.40;99.90;;;;;;5045000;28;20053;-70
2023/03/31 11:07:33;;;;;;;1999.90;999.90;;;15.20;99.90;;;;;;5039101;28;20048;-77
2023/03/31 11:10:22;;;;;;;1999.90;999.90;;;15.30;99.90;;;;;;5034260;28;20029;-74
2023/03/31 11:13:11;;;;;;;1999.90;999.90;;;14.80;99.90;;;;;;5047610;28;20025;-78
2023/03/31 11:16:03;;;;;;;1999.90;999.90;;;15.20;99.90;;;;;;5049327;28;20043;-72
2023/03/31 11:18:43;;;;;;;1999.90;999.90;;;15.30;99.90;;;;;;5046921;28;20360;-75
2023/03/31 11:21:12;;;;;;;1999.90;999.90;;;15.70;99.90;;;;;;5050571;28;20045;-70
2023/03/31 11:23:57;;;;;;;1999.90;999.90;;;15.30;99.90;;;;;;5050703;28;20396;-76
2023/03/31 11:26:44;;;;;;;1999.90;999.90;;;15.40;99.90;;;;;;5048599;28;20029;-74
2023/03/31 11:29:15;;;;;;;1999.90;999.90;;;15.50;99.90;;;;;;5050804;28;20033;-71
2023/03/31 11:31:55;;;;;;;1999.90;999.90;;;15.30;99.90;;;;;;5051493;28;20078;-74
2023/03/31 11:34:23;;;;;;;1999.90;999.90;;;15.60;99.90;;;;;;5062783;28;20044;-75
2023/03/31 11:37:17;;;;;;;1999.90;999.90;;;15.60;99.90;;;;;;5071665;28;20029;-75
2023/03/31 11:40:06;;;;;;;1999.90;999.90;;;15.40;99.90;;;;;;5072245;28;20032;-71
2023/03/31 11:42:44;;;;;;;1999.90;999.90;;;15.70;99.90;;;;;;5059720;28;20025;-73
2023/03/31 11:45:21;;;;;;;1999.90;999.90;;;15.50;99.90;;;;;;5051898;28;20036;-74
2023/03/31 11:47:51;;;;;;;1999.90;999.90;;;15.50;99.90;;;;;;5059456;28;20417;-72
2023/03/31 11:50:25;;;;;;;1999.90;999.90;;;15.40;99.90;;;;;;5046995;28;20048;-72
2023/03/31 11:53:15;;;;;;;1999.90;999.90;;;15.40;99.90;;;;;;5059426;28;20052;-70
2023/03/31 11:55:42;;;;;;;1999.90;999.90;;;15.40;99.90;;;;;;5067753;28;20095;-73
2023/03/31 11:58:15;;;;;;;1999.90;999.90;;;15.20;99.90;;;;;;5056543;28;20041;-75
2023/03/31 12:00:51;;;;;;;1999.90;999.90;;;15.10;99.90;;;;;;5051058;28;20025;-74
2023/03/31 12:04:14;;;;;;;1999.90;999.90;;;15.30;99.90;;;;;;5045797;28;20044;-72
2023/03/31 12:06:41;;;;;;;1999.90;999.90;;;15.60;99.90;;;;;;5034574;28;20028;-72
2023/03/31 12:09:26;;;;;;;1999.90;999.90;;;15.60;99.90;;;;;;5042153;28;20040;-70
2023/03/31 12:11:58;;;;;;;1999.90;999.90;;;15.80;99.90;;;;;;5039012;28;20044;-75
2023/03/31 12:14:49;;;;;;;1999.90;999.90;;;15.80;99.90;;;;;;5024299;28;20393;-72
2023/03/31 12:17:21;;;;;;;1999.90;999.90;;;16.00;99.90;;;;;;5030118;28;20492;-71
2023/03/31 12:19:54;;;;;;;1999.90;999.90;;;15.90;99.90;;;;;;5043524;28;20429;-73
2023/03/31 12:22:45;;;;;;;1999.90;999.90;;;15.70;99.90;;;;;;5027277;28;20102;-75
2023/03/31 12:25:18;;;;;;;1999.90;999.90;;;15.90;99.90;;;;;;5042419;28;20063;-74